Terminal Aerodrome Forecast
Issued by NWS

Home | Current Version | Previous Version | Text Only | Print | Product List | Glossary On
Versions: 1 2 3 4 5 6 7 8 9 10 11 12 13 14 15 16 17
232
FTUS41 KGYX 251720
TAFAUG
TAF
KAUG 251720Z 2518/2618 17006KT P6SM SCT100 BKN200
     FM252300 14004KT 5SM -SHRA BR SCT020 BKN050 OVC080
     FM260200 VRB03KT 4SM SHRA BR BKN012 OVC025
     FM260400 00000KT 1/2SM FG OVC005
     FM261300 30008G18KT P6SM SCT040=

USA.gov is the U.S. government's official web portal to all federal, state and local government web resources and services.